createdAt,value
2017-08-23T00:06:17.092Z,100352.20
2017-08-23T00:16:40.806Z,100339.32
2017-08-23T00:27:04.411Z,100334.80
2017-08-23T00:37:27.165Z,100330.55
2017-08-23T00:47:49.671Z,100326.98
2017-08-23T00:58:13.339Z,100328.45
2017-08-23T01:08:35.151Z,100322.41
2017-08-23T01:18:57.123Z,100315.64
2017-08-23T01:29:19.819Z,100311.77
2017-08-23T01:45:02.620Z,100301.80
2017-08-23T01:55:25.403Z,100291.67
2017-08-23T02:05:49.116Z,100289.22
2017-08-23T02:16:10.898Z,100288.11
2017-08-23T02:26:33.912Z,100280.34
2017-08-23T02:36:57.181Z,100278.75
2017-08-23T02:47:21.160Z,100272.23
2017-08-23T02:57:43.665Z,100266.23
2017-08-23T03:08:07.435Z,100266.59
2017-08-23T03:18:30.327Z,100262.09
2017-08-23T03:28:53.065Z,100260.25
2017-08-23T03:44:37.127Z,100255.94
2017-08-23T03:55:01.202Z,100244.52
2017-08-23T04:05:24.782Z,100249.17
2017-08-23T04:10:30.675Z,100260.93
2017-08-23T04:20:57.326Z,100254.22
2017-08-23T04:26:03.123Z,100255.62
2017-08-23T04:36:26.445Z,100247.09
2017-08-23T04:46:51.371Z,100243.20
2017-08-23T04:57:18.224Z,100236.06
2017-08-23T05:07:42.546Z,100227.55
2017-08-23T05:18:04.339Z,100236.90
2017-08-23T05:28:31.602Z,100236.63
2017-08-23T05:38:53.952Z,100228.45
2017-08-23T05:49:16.414Z,100231.94
2017-08-23T05:59:38.917Z,100219.95
2017-08-23T06:10:01.511Z,100225.66
2017-08-23T06:20:24.203Z,100217.06
2017-08-23T06:30:46.728Z,100209.84
2017-08-23T06:41:09.318Z,100203.06
2017-08-23T06:51:31.998Z,100207.95
2017-08-23T07:01:54.543Z,100206.08
2017-08-23T07:12:17.347Z,100193.88
2017-08-23T07:17:24.163Z,100193.62
2017-08-23T07:27:48.169Z,100193.61
2017-08-23T07:38:09.474Z,100198.86
2017-08-23T07:48:32.255Z,100197.52
2017-08-23T07:58:54.210Z,100195.50
2017-08-23T08:09:16.872Z,100212.32
2017-08-23T08:19:39.356Z,100215.93
2017-08-23T08:30:06.062Z,100220.30
2017-08-23T08:40:28.476Z,100218.03
2017-08-23T08:50:50.239Z,100224.67
2017-08-23T09:01:12.798Z,100220.45
2017-08-23T09:11:32.871Z,100215.59
2017-08-23T09:21:54.723Z,100208.66
2017-08-23T09:32:17.325Z,100199.42
2017-08-23T09:47:57.082Z,100182.39
2017-08-23T09:58:16.935Z,100174.72
2017-08-23T10:08:39.430Z,100171.00
2017-08-23T10:19:02.048Z,100157.11
2017-08-23T10:29:25.390Z,100164.24
2017-08-23T10:45:04.294Z,100158.52
2017-08-23T10:55:26.877Z,100149.81
2017-08-23T11:05:50.357Z,100149.94
2017-08-23T11:16:12.140Z,100138.61
2017-08-23T11:26:32.616Z,100130.70
2017-08-23T11:36:55.238Z,100125.80
2017-08-23T11:47:21.058Z,100124.59
2017-08-23T11:57:43.558Z,100115.58
2017-08-23T12:08:06.965Z,100098.96
2017-08-23T12:18:31.456Z,100084.48
2017-08-23T12:28:53.214Z,100065.73
